Time;durP1;ratioP1;P1;durP2;ratioP2;P2;SDS_P1;SDS_P2;PMS_P1;PMS_P2;Temp;Humidity;BMP_temperature;BMP_pressure;BME280_temperature;BME280_humidity;BME280_pressure;Samples;Min_cycle;Max_cycle;Signal;HPM_P1;HPM_P2
2022/09/11 00:02:27;;;;;;;2.13;1.83;;;15.40;99.90;;;;;;6229018;28;20483;-66
2022/09/11 00:05:30;;;;;;;4.37;1.60;;;15.40;99.90;;;;;;6229098;28;20480;-67
2022/09/11 00:08:34;;;;;;;1.67;1.37;;;15.50;99.90;;;;;;6228579;28;21299;-66
2022/09/11 00:11:40;;;;;;;2.97;1.40;;;15.50;99.90;;;;;;6229278;28;20557;-65
2022/09/11 00:14:43;;;;;;;1.70;1.60;;;15.60;99.90;;;;;;6228976;28;20475;-66
2022/09/11 00:17:47;;;;;;;2.40;1.50;;;15.60;99.90;;;;;;6228889;28;20480;-66
2022/09/11 00:20:52;;;;;;;1.70;1.60;;;15.60;99.90;;;;;;6228843;28;20854;-67
2022/09/11 00:23:56;;;;;;;6.37;1.43;;;15.60;99.90;;;;;;6228913;28;20529;-65
2022/09/11 00:26:59;;;;;;;2.17;2.00;;;15.60;99.90;;;;;;6228855;28;20480;-66
2022/09/11 00:30:03;;;;;;;6.13;1.73;;;15.60;99.90;;;;;;6228759;28;20491;-66
2022/09/11 00:33:07;;;;;;;1.53;1.43;;;15.60;99.90;;;;;;6228739;28;20537;-66
2022/09/11 00:36:14;;;;;;;4.03;1.93;;;15.70;99.90;;;;;;6228294;28;20956;-66
2022/09/11 00:39:17;;;;;;;2.00;1.80;;;15.60;99.90;;;;;;6228437;28;20476;-67
2022/09/11 00:42:20;;;;;;;4.40;2.00;;;15.50;99.90;;;;;;6223727;28;20475;-66
2022/09/11 00:45:27;;;;;;;1.77;1.53;;;15.40;99.90;;;;;;6228246;28;21007;-64
2022/09/11 00:48:35;;;;;;;3.10;2.03;;;15.40;99.90;;;;;;6223273;28;20958;-64
2022/09/11 00:51:39;;;;;;;2.10;1.90;;;15.40;99.90;;;;;;6202914;28;20488;-63
2022/09/11 00:54:48;;;;;;;2.17;1.77;;;15.40;99.90;;;;;;6201834;28;20493;-63
2022/09/11 00:57:54;;;;;;;3.00;2.10;;;15.40;99.90;;;;;;6202027;28;20988;-63
2022/09/11 01:00:58;;;;;;;2.50;1.40;;;15.30;99.90;;;;;;6202308;28;20466;-63
2022/09/11 01:04:04;;;;;;;2.23;1.73;;;15.20;99.90;;;;;;6202125;28;20477;-63
2022/09/11 01:07:07;;;;;;;2.17;1.97;;;15.20;99.90;;;;;;6202472;28;20524;-64
2022/09/11 01:10:11;;;;;;;2.57;1.60;;;15.10;99.90;;;;;;6205236;28;20481;-64
2022/09/11 01:13:23;;;;;;;2.73;2.07;;;15.20;99.90;;;;;;6219413;28;20526;-64
2022/09/11 01:16:35;;;;;;;5.13;2.73;;;15.10;99.90;;;;;;6213992;28;20877;-64
2022/09/11 01:20:04;;;;;;;2.83;2.57;;;15.10;99.90;;;;;;6214591;28;20488;-64
2022/09/11 01:23:29;;;;;;;4.67;1.70;;;15.00;99.90;;;;;;6209243;28;20484;-64
2022/09/11 01:26:54;;;;;;;2.73;1.40;;;15.00;99.90;;;;;;6210161;28;20477;-64
2022/09/11 01:30:03;;;;;;;2.53;1.50;;;15.00;99.90;;;;;;6208908;28;20469;-64
2022/09/11 01:33:19;;;;;;;2.40;2.17;;;15.00;99.90;;;;;;6214101;28;20579;-64
2022/09/11 01:36:30;;;;;;;4.60;1.60;;;15.00;99.90;;;;;;6215042;28;20851;-64
2022/09/11 01:39:38;;;;;;;2.27;1.80;;;15.00;99.90;;;;;;6226996;28;20519;-64
2022/09/11 01:42:44;;;;;;;2.27;2.07;;;14.90;99.90;;;;;;6226782;28;20484;-64
2022/09/11 01:45:52;;;;;;;3.23;2.27;;;14.90;99.90;;;;;;6222797;28;20484;-64
2022/09/11 01:49:02;;;;;;;2.53;1.70;;;14.90;99.90;;;;;;6226924;28;20594;-65
2022/09/11 01:52:09;;;;;;;5.80;1.60;;;14.90;99.90;;;;;;6226932;28;20488;-65
2022/09/11 01:55:16;;;;;;;1.40;1.30;;;14.90;99.90;;;;;;6225985;28;20476;-64
2022/09/11 01:58:22;;;;;;;2.77;2.00;;;14.90;99.90;;;;;;6225991;28;20483;-64
2022/09/11 02:01:30;;;;;;;2.73;1.50;;;14.90;99.90;;;;;;6226328;28;20440;-65
2022/09/11 02:04:37;;;;;;;3.00;2.00;;;14.90;99.90;;;;;;6226596;28;20469;-65
2022/09/11 02:07:45;;;;;;;1.50;1.40;;;14.90;99.90;;;;;;6226627;28;20523;-64
2022/09/11 02:10:53;;;;;;;5.57;2.10;;;14.80;99.90;;;;;;6226628;28;20912;-64
2022/09/11 02:14:02;;;;;;;3.57;1.40;;;14.80;99.90;;;;;;6226201;28;20475;-65
2022/09/11 02:17:15;;;;;;;2.70;1.93;;;14.70;99.90;;;;;;6226645;28;20599;-65
2022/09/11 02:20:20;;;;;;;6.43;1.90;;;14.80;99.90;;;;;;6226586;28;20484;-65
2022/09/11 02:23:23;;;;;;;2.33;1.50;;;14.80;99.90;;;;;;6226110;28;20471;-65
2022/09/11 02:26:28;;;;;;;3.20;2.10;;;14.80;99.90;;;;;;6226187;28;20919;-65
2022/09/11 02:29:32;;;;;;;5.63;2.53;;;14.80;99.90;;;;;;6223132;28;20473;-65
2022/09/11 02:32:39;;;;;;;3.43;2.47;;;14.80;99.90;;;;;;6226055;28;20787;-65
2022/09/11 02:35:51;;;;;;;2.03;1.60;;;14.70;99.90;;;;;;6225896;28;20476;-65
2022/09/11 02:39:10;;;;;;;2.53;1.47;;;14.80;99.90;;;;;;6205715;28;20540;-65
2022/09/11 02:42:27;;;;;;;2.83;1.57;;;14.60;99.90;;;;;;6201517;28;20953;-64
2022/09/11 02:45:41;;;;;;;2.07;1.53;;;14.60;99.90;;;;;;6201534;28;20485;-64
2022/09/11 02:48:56;;;;;;;3.53;1.50;;;14.60;99.90;;;;;;6201691;28;20531;-64
2022/09/11 02:52:07;;;;;;;3.03;1.27;;;14.70;99.90;;;;;;6192478;28;20867;-64
2022/09/11 02:55:15;;;;;;;4.70;1.77;;;14.60;99.90;;;;;;6200925;28;20535;-64
2022/09/11 02:58:25;;;;;;;3.20;1.73;;;14.60;99.90;;;;;;6201131;28;20507;-64
2022/09/11 03:01:28;;;;;;;1.77;1.40;;;14.60;99.90;;;;;;6201529;28;20445;-64
2022/09/11 03:04:35;;;;;;;3.23;1.47;;;14.70;99.90;;;;;;6201067;28;20976;-65
2022/09/11 03:07:38;;;;;;;1.50;1.40;;;14.70;99.90;;;;;;6201734;28;20488;-64
2022/09/11 03:10:41;;;;;;;1.10;1.00;;;14.70;99.90;;;;;;6200029;28;20473;-64
2022/09/11 03:13:45;;;;;;;1.80;1.17;;;14.60;99.90;;;;;;6201378;28;20481;-64
2022/09/11 03:16:48;;;;;;;5.13;1.27;;;14.60;99.90;;;;;;6200766;28;20539;-65
2022/09/11 03:19:53;;;;;;;3.20;1.50;;;14.60;99.90;;;;;;6200947;28;21024;-65
2022/09/11 03:22:56;;;;;;;2.77;1.37;;;14.70;99.90;;;;;;6201241;28;20491;-64
2022/09/11 03:25:59;;;;;;;1.50;1.30;;;14.70;99.90;;;;;;6201294;28;20538;-64
2022/09/11 03:29:03;;;;;;;2.43;1.73;;;14.70;99.90;;;;;;6201170;28;20543;-64
2022/09/11 03:32:06;;;;;;;1.73;1.47;;;14.70;99.90;;;;;;6200904;28;20515;-64
2022/09/11 03:35:10;;;;;;;1.70;1.23;;;14.60;99.90;;;;;;6201043;28;20543;-64
2022/09/11 03:38:14;;;;;;;1.83;1.30;;;14.50;99.90;;;;;;6200654;28;20484;-64
2022/09/11 03:41:17;;;;;;;2.77;1.60;;;14.50;99.90;;;;;;6200866;28;20832;-65
2022/09/11 03:44:20;;;;;;;2.93;1.40;;;14.60;99.90;;;;;;6200412;28;20570;-65
2022/09/11 03:47:23;;;;;;;2.33;1.13;;;14.50;99.90;;;;;;6200726;28;20473;-64
2022/09/11 03:50:28;;;;;;;1.53;1.33;;;14.60;99.90;;;;;;6200048;28;20473;-64
2022/09/11 03:53:31;;;;;;;1.60;1.37;;;14.70;99.90;;;;;;6196697;28;20953;-65
2022/09/11 03:56:36;;;;;;;1.70;1.20;;;14.70;99.90;;;;;;6200763;28;20488;-64
2022/09/11 03:59:39;;;;;;;1.60;1.33;;;14.70;99.90;;;;;;6200715;28;20793;-65
2022/09/11 04:02:42;;;;;;;1.87;1.30;;;14.70;99.90;;;;;;6200562;28;20972;-65
2022/09/11 04:05:56;;;;;;;2.80;1.10;;;14.70;99.90;;;;;;6200623;28;20543;-65
2022/09/11 04:09:00;;;;;;;3.20;1.47;;;14.70;99.90;;;;;;6200397;28;20473;-64
2022/09/11 04:12:03;;;;;;;1.83;1.20;;;14.70;99.90;;;;;;6200373;28;20845;-64
2022/09/11 04:15:07;;;;;;;1.87;0.80;;;14.70;99.90;;;;;;6200193;28;20831;-64
2022/09/11 04:18:10;;;;;;;2.30;1.67;;;14.70;99.90;;;;;;6200471;28;20924;-64
2022/09/11 04:21:16;;;;;;;1.47;1.27;;;14.70;99.90;;;;;;6201536;28;20535;-64
2022/09/11 04:24:19;;;;;;;2.20;1.17;;;14.70;99.90;;;;;;6204684;28;20477;-64
2022/09/11 04:27:22;;;;;;;2.30;1.30;;;14.70;99.90;;;;;;6204753;28;20842;-64
2022/09/11 04:30:25;;;;;;;2.80;1.30;;;14.70;99.90;;;;;;6205067;28;20551;-64
2022/09/11 04:33:28;;;;;;;6.00;1.20;;;14.70;99.90;;;;;;6205436;28;20488;-64
2022/09/11 04:36:33;;;;;;;2.60;1.37;;;14.80;99.90;;;;;;6204806;28;20473;-65
2022/09/11 04:39:36;;;;;;;4.40;1.20;;;14.80;99.90;;;;;;6204498;28;20558;-64
2022/09/11 04:42:39;;;;;;;3.07;1.50;;;14.80;99.90;;;;;;6204559;28;20476;-64
2022/09/11 04:45:42;;;;;;;2.50;1.23;;;14.80;99.90;;;;;;6206592;28;20969;-64
2022/09/11 04:48:46;;;;;;;1.63;1.40;;;14.90;99.90;;;;;;6206879;28;20484;-64
2022/09/11 04:51:51;;;;;;;1.17;1.07;;;14.90;99.90;;;;;;6204397;28;20477;-64
2022/09/11 04:54:54;;;;;;;1.77;1.30;;;14.90;99.90;;;;;;6203796;28;20484;-64
2022/09/11 04:57:57;;;;;;;5.07;1.50;;;14.80;99.90;;;;;;6203929;28;20566;-64
2022/09/11 05:01:00;;;;;;;10.70;2.13;;;14.90;99.90;;;;;;6199405;28;20802;-64
2022/09/11 05:04:03;;;;;;;1.83;1.53;;;14.90;99.90;;;;;;6203805;28;20563;-64
2022/09/11 05:07:08;;;;;;;1.83;1.73;;;14.90;99.90;;;;;;6203978;28;20479;-64
2022/09/11 05:10:11;;;;;;;2.07;1.80;;;14.80;99.90;;;;;;6203868;28;20504;-63
2022/09/11 05:13:14;;;;;;;2.63;1.77;;;14.90;99.90;;;;;;6206099;28;20461;-63
2022/09/11 05:16:18;;;;;;;3.33;1.70;;;14.90;99.90;;;;;;6203565;28;20456;-63
2022/09/11 05:19:21;;;;;;;2.30;1.70;;;14.90;99.90;;;;;;6203564;28;20783;-63
2022/09/11 05:22:26;;;;;;;2.57;1.30;;;14.90;99.90;;;;;;6203752;28;20460;-63
2022/09/11 05:25:30;;;;;;;2.50;1.50;;;14.90;99.90;;;;;;6203550;28;20492;-63
2022/09/11 05:28:34;;;;;;;2.57;1.70;;;14.90;99.90;;;;;;6203258;28;20465;-63
2022/09/11 05:31:37;;;;;;;3.00;1.57;;;14.90;99.90;;;;;;6203288;28;20465;-63
2022/09/11 05:34:40;;;;;;;4.50;1.50;;;14.90;99.90;;;;;;6202672;28;20508;-64
2022/09/11 05:37:45;;;;;;;5.67;1.40;;;14.90;99.90;;;;;;6203551;28;20482;-64
2022/09/11 05:40:50;;;;;;;3.17;1.90;;;14.90;99.90;;;;;;6203164;28;20476;-63
2022/09/11 05:43:53;;;;;;;2.40;1.43;;;14.90;99.90;;;;;;6203459;28;20472;-63
2022/09/11 05:46:57;;;;;;;5.07;1.87;;;14.90;99.90;;;;;;6203027;28;20469;-63
2022/09/11 05:50:00;;;;;;;2.23;1.53;;;15.00;99.90;;;;;;6202910;28;20511;-64
2022/09/11 05:53:05;;;;;;;2.60;1.40;;;15.00;99.90;;;;;;6202380;28;20477;-63
2022/09/11 05:56:11;;;;;;;1.43;1.33;;;15.10;99.90;;;;;;6202729;28;20900;-63
2022/09/11 05:59:15;;;;;;;2.70;1.47;;;15.20;99.90;;;;;;6202813;28;20552;-63
2022/09/11 06:02:18;;;;;;;1.37;1.27;;;15.30;99.90;;;;;;6193362;28;20551;-63
2022/09/11 06:05:21;;;;;;;4.73;1.73;;;15.30;99.90;;;;;;6202807;28;20488;-64
2022/09/11 06:08:26;;;;;;;2.40;1.60;;;15.30;99.90;;;;;;6202387;28;20477;-65
2022/09/11 06:11:29;;;;;;;2.37;1.57;;;15.40;99.90;;;;;;6203182;28;20473;-65
2022/09/11 06:14:32;;;;;;;2.50;1.70;;;15.50;99.90;;;;;;6202655;28;20484;-64
2022/09/11 06:17:36;;;;;;;3.70;2.40;;;15.60;99.90;;;;;;6202683;28;20477;-64
2022/09/11 06:20:40;;;;;;;6.90;2.07;;;15.80;99.90;;;;;;6202179;28;20496;-64
2022/09/11 06:23:45;;;;;;;2.07;1.90;;;16.00;99.90;;;;;;6202351;28;20485;-64
2022/09/11 06:26:48;;;;;;;2.60;1.80;;;16.20;99.90;;;;;;6201908;28;20480;-64
2022/09/11 06:29:51;;;;;;;2.10;1.90;;;16.30;99.90;;;;;;6202062;28;20480;-65
2022/09/11 06:32:55;;;;;;;2.77;1.93;;;17.00;99.90;;;;;;6201736;28;20512;-65
2022/09/11 06:35:59;;;;;;;2.50;1.90;;;18.20;99.90;;;;;;6204325;28;20489;-64
2022/09/11 06:39:03;;;;;;;3.43;2.17;;;18.50;99.90;;;;;;6209581;28;20233;-65
2022/09/11 06:42:07;;;;;;;6.83;1.87;;;18.10;99.90;;;;;;6213163;28;20472;-64
2022/09/11 06:45:11;;;;;;;2.07;1.77;;;17.90;99.90;;;;;;6225905;28;20265;-65
2022/09/11 06:48:14;;;;;;;3.20;1.90;;;17.80;99.90;;;;;;6216761;28;20483;-64
2022/09/11 06:51:18;;;;;;;3.43;2.10;;;17.70;99.90;;;;;;6209397;28;20471;-64
2022/09/11 06:54:23;;;;;;;3.53;2.60;;;18.00;99.90;;;;;;6208757;28;20501;-64
2022/09/11 06:57:27;;;;;;;2.60;2.30;;;18.10;99.90;;;;;;6208992;28;20490;-64
2022/09/11 07:00:33;;;;;;;3.20;1.97;;;19.10;99.90;;;;;;6213167;28;20228;-65
2022/09/11 07:03:36;;;;;;;2.50;2.13;;;21.80;99.90;;;;;;6212722;28;20233;-64
2022/09/11 07:06:39;;;;;;;4.23;2.37;;;23.90;95.90;;;;;;6212499;28;20224;-65
2022/09/11 07:09:44;;;;;;;3.37;1.80;;;25.00;92.10;;;;;;6225683;28;20613;-66
2022/09/11 07:12:47;;;;;;;3.87;2.00;;;24.70;90.70;;;;;;6225760;28;20240;-66
2022/09/11 07:15:59;;;;;;;5.37;2.67;;;24.00;90.40;;;;;;6225603;28;20599;-66
2022/09/11 07:19:03;;;;;;;2.80;2.10;;;23.00;92.00;;;;;;6225491;28;20664;-65
2022/09/11 07:22:06;;;;;;;2.97;2.43;;;22.50;92.60;;;;;;6225122;28;20241;-66
2022/09/11 07:25:11;;;;;;;4.60;2.20;;;22.20;93.10;;;;;;6225020;28;20241;-65
2022/09/11 07:28:14;;;;;;;2.37;2.10;;;22.00;93.40;;;;;;6225561;28;20258;-65
2022/09/11 07:31:19;;;;;;;3.53;2.10;;;21.30;94.00;;;;;;6225777;28;20229;-65
2022/09/11 07:34:23;;;;;;;2.70;1.90;;;20.80;95.20;;;;;;6225563;28;20295;-65
2022/09/11 07:37:26;;;;;;;2.30;1.70;;;20.40;95.90;;;;;;6225355;28;20648;-65
2022/09/11 07:40:31;;;;;;;2.20;2.00;;;20.30;96.50;;;;;;6214705;28;20230;-65
2022/09/11 07:43:34;;;;;;;3.10;2.07;;;20.00;97.10;;;;;;6219732;28;20314;-65
2022/09/11 07:46:40;;;;;;;4.17;2.50;;;19.90;97.70;;;;;;6225462;28;20241;-64
2022/09/11 07:49:47;;;;;;;3.50;1.87;;;19.60;98.40;;;;;;6225163;28;20225;-64
2022/09/11 07:52:50;;;;;;;1.90;1.80;;;19.50;99.20;;;;;;6222136;28;20284;-65
2022/09/11 07:55:54;;;;;;;2.00;1.80;;;19.50;99.50;;;;;;6212381;28;20599;-65
2022/09/11 07:58:57;;;;;;;3.20;1.90;;;19.50;99.60;;;;;;6217508;28;20217;-65
2022/09/11 08:02:01;;;;;;;2.27;2.07;;;19.40;99.10;;;;;;6217274;28;20285;-65
2022/09/11 08:05:05;;;;;;;4.00;2.03;;;19.50;99.20;;;;;;6216320;28;20260;-66
2022/09/11 08:08:08;;;;;;;2.23;2.03;;;19.30;99.60;;;;;;6218181;28;20234;-65
2022/09/11 08:11:15;;;;;;;3.00;1.50;;;19.50;99.90;;;;;;6201701;28;20225;-65
2022/09/11 08:14:18;;;;;;;7.03;1.80;;;20.20;99.90;;;;;;6216984;28;20233;-65
2022/09/11 08:17:21;;;;;;;2.70;2.07;;;21.80;99.00;;;;;;6216941;28;20221;-65
2022/09/11 08:20:24;;;;;;;3.47;1.40;;;27.30;91.40;;;;;;6222924;28;20225;-65
2022/09/11 08:23:27;;;;;;;2.17;1.75;;;32.40;66.20;;;;;;6219205;28;20290;-64
2022/09/11 08:26:32;;;;;;;2.35;2.15;;;35.10;50.00;;;;;;6217793;28;20225;-65
2022/09/11 08:29:35;;;;;;;2.40;1.70;;;37.90;43.40;;;;;;6212658;28;20283;-65
2022/09/11 08:32:39;;;;;;;2.42;2.17;;;39.60;37.40;;;;;;6209008;28;20699;-65
2022/09/11 08:35:42;;;;;;;2.30;2.05;;;38.70;36.40;;;;;;6202891;28;20237;-63
2022/09/11 08:38:46;;;;;;;4.00;1.52;;;39.60;35.40;;;;;;6204097;28;20606;-65
2022/09/11 08:41:55;;;;;;;3.15;1.48;;;40.50;32.90;;;;;;6204562;28;20241;-65
2022/09/11 08:45:02;;;;;;;1.95;1.55;;;39.90;33.10;;;;;;6204283;28;20264;-66
2022/09/11 08:48:08;;;;;;;3.67;1.20;;;39.70;32.60;;;;;;6204578;28;20240;-65
2022/09/11 08:51:16;;;;;;;1.45;1.13;;;39.50;32.40;;;;;;6204273;28;20241;-65
2022/09/11 08:54:26;;;;;;;3.70;1.60;;;38.10;33.00;;;;;;6203835;28;20284;-64
2022/09/11 08:57:40;;;;;;;3.95;1.20;;;35.50;34.80;;;;;;6204220;28;20236;-65
2022/09/11 09:00:52;;;;;;;1.85;1.13;;;32.80;38.50;;;;;;6204129;28;20291;-65
2022/09/11 09:04:08;;;;;;;1.60;1.23;;;31.10;41.80;;;;;;6203891;28;20546;-65
2022/09/11 09:07:21;;;;;;;3.33;1.40;;;29.60;45.00;;;;;;6202851;28;20288;-64
2022/09/11 09:10:36;;;;;;;2.23;1.13;;;28.80;46.90;;;;;;6203615;28;20225;-64
2022/09/11 09:14:05;;;;;;;5.13;1.00;;;28.00;48.90;;;;;;6206234;28;20236;-63
2022/09/11 09:17:13;;;;;;;1.97;1.20;;;27.40;50.50;;;;;;6203991;28;20236;-62
2022/09/11 09:20:21;;;;;;;1.33;1.10;;;31.10;46.50;;;;;;6203798;28;20699;-63
2022/09/11 09:23:29;;;;;;;1.60;1.27;;;33.20;41.70;;;;;;6203492;28;20229;-63
2022/09/11 09:26:39;;;;;;;1.63;1.00;;;33.50;39.60;;;;;;6212705;28;20245;-62
2022/09/11 09:29:46;;;;;;;1.30;0.80;;;32.20;40.70;;;;;;6212533;28;20228;-63
2022/09/11 09:32:52;;;;;;;1.73;0.95;;;32.30;41.50;;;;;;6217587;28;20224;-67
2022/09/11 09:35:56;;;;;;;1.70;1.00;;;35.20;38.60;;;;;;6207490;28;20265;-63
2022/09/11 09:39:00;;;;;;;1.20;0.80;;;36.20;36.00;;;;;;6212755;28;20236;-63
2022/09/11 09:42:41;;;;;;;2.08;0.90;;;37.70;34.00;;;;;;6211380;28;20233;-62
2022/09/11 09:46:06;;;;;;;1.45;1.30;;;36.40;34.30;;;;;;6209197;28;20240;-65
2022/09/11 09:49:10;;;;;;;1.20;0.82;;;34.30;36.90;;;;;;6212722;28;20229;-66
2022/09/11 09:52:18;;;;;;;2.20;0.98;;;32.80;39.80;;;;;;6202393;28;20303;-65
2022/09/11 09:55:22;;;;;;;3.03;1.10;;;31.50;41.90;;;;;;6207147;28;20247;-64
2022/09/11 09:58:30;;;;;;;1.40;1.13;;;29.90;44.90;;;;;;6224036;28;20215;-64
2022/09/11 10:01:46;;;;;;;2.83;1.37;;;28.60;47.60;;;;;;6221188;28;20261;-66
2022/09/11 10:05:07;;;;;;;1.07;0.97;;;27.80;48.50;;;;;;6193091;28;20596;-63
2022/09/11 10:08:28;;;;;;;2.30;1.07;;;27.10;49.40;;;;;;6212860;28;20838;-63
2022/09/11 10:11:31;;;;;;;1.33;0.80;;;27.20;50.40;;;;;;6213084;28;20224;-68
2022/09/11 10:14:44;;;;;;;2.40;0.70;;;27.30;50.50;;;;;;6213139;28;20247;-68
2022/09/11 10:18:20;;;;;;;2.03;1.17;;;27.20;49.70;;;;;;6207675;28;20601;-65
2022/09/11 10:21:28;;;;;;;1.60;1.10;;;27.20;49.80;;;;;;6214716;28;20286;-68
2022/09/11 10:24:33;;;;;;;3.93;1.17;;;27.20;49.50;;;;;;6202848;28;20256;-69
2022/09/11 10:27:43;;;;;;;2.20;0.90;;;27.90;48.70;;;;;;6212715;28;20247;-66
2022/09/11 10:30:58;;;;;;;1.50;0.80;;;28.00;47.70;;;;;;6213789;28;20602;-69
2022/09/11 10:34:05;;;;;;;1.63;0.80;;;27.70;47.70;;;;;;6208888;28;20266;-66
2022/09/11 10:37:20;;;;;;;1.13;0.77;;;27.20;48.10;;;;;;6211855;28;20220;-66
2022/09/11 10:40:23;;;;;;;2.00;0.80;;;26.70;49.20;;;;;;6211371;28;20220;-66
2022/09/11 10:43:33;;;;;;;1.43;0.90;;;26.40;49.50;;;;;;6220345;28;20286;-69
2022/09/11 10:46:38;;;;;;;1.30;0.80;;;26.30;49.80;;;;;;6202118;28;20225;-67
2022/09/11 10:49:43;;;;;;;1.27;0.60;;;26.20;49.60;;;;;;6201765;28;20231;-66
2022/09/11 10:53:15;;;;;;;2.80;1.03;;;26.00;49.30;;;;;;6201802;28;20229;-66
2022/09/11 10:56:18;;;;;;;2.03;0.80;;;25.80;49.50;;;;;;6201369;28;20237;-70
2022/09/11 10:59:30;;;;;;;2.20;0.63;;;25.70;50.10;;;;;;6201565;28;20232;-65
2022/09/11 11:02:34;;;;;;;1.73;0.90;;;25.90;50.20;;;;;;6204276;28;20701;-70
2022/09/11 11:05:50;;;;;;;2.50;0.67;;;26.50;48.70;;;;;;6203403;28;20728;-65
2022/09/11 11:09:09;;;;;;;1.43;0.80;;;27.10;48.20;;;;;;6201531;28;20292;-67
2022/09/11 11:12:39;;;;;;;1.00;0.40;;;27.70;47.30;;;;;;6201693;28;20226;-69
2022/09/11 11:15:56;;;;;;;5.67;0.70;;;27.80;46.00;;;;;;6200832;28;20684;-65
2022/09/11 11:19:16;;;;;;;1.10;0.60;;;28.00;44.80;;;;;;6201380;28;20240;-66
2022/09/11 11:22:50;;;;;;;0.80;0.40;;;28.00;46.20;;;;;;6201276;28;20331;-67
2022/09/11 11:26:06;;;;;;;1.47;0.60;;;27.90;46.00;;;;;;6201077;28;20225;-65
2022/09/11 11:29:32;;;;;;;1.50;0.40;;;28.00;45.50;;;;;;6200744;28;20233;-65
2022/09/11 11:32:49;;;;;;;1.17;0.50;;;28.10;44.60;;;;;;6204642;28;20229;-65
2022/09/11 11:36:01;;;;;;;0.87;0.50;;;28.10;44.90;;;;;;6214081;28;20617;-69
2022/09/11 11:39:18;;;;;;;1.53;0.50;;;28.00;44.50;;;;;;6218305;28;20229;-68
2022/09/11 11:42:25;;;;;;;0.90;0.60;;;27.60;44.90;;;;;;6217528;28;20298;-66
2022/09/11 11:45:33;;;;;;;0.63;0.40;;;27.20;45.80;;;;;;6219929;28;20293;-65
2022/09/11 11:48:43;;;;;;;0.70;0.40;;;26.90;46.30;;;;;;6229418;28;20653;-65
2022/09/11 11:51:51;;;;;;;1.37;0.40;;;26.90;46.80;;;;;;6229745;28;20232;-65
2022/09/11 11:55:01;;;;;;;1.43;0.40;;;27.10;45.50;;;;;;6229944;28;20244;-67
2022/09/11 11:58:12;;;;;;;0.93;0.53;;;27.40;45.40;;;;;;6226355;28;20245;-66
2022/09/11 12:01:23;;;;;;;0.70;0.40;;;27.40;45.50;;;;;;6226140;28;20241;-66
2022/09/11 12:04:41;;;;;;;1.23;0.60;;;27.70;45.50;;;;;;6229716;28;20236;-66
2022/09/11 12:07:46;;;;;;;1.00;0.63;;;27.70;45.70;;;;;;6229381;28;20672;-67
2022/09/11 12:10:59;;;;;;;1.63;0.40;;;27.40;45.70;;;;;;6214331;28;20716;-68
2022/09/11 12:14:02;;;;;;;0.70;0.40;;;27.10;46.70;;;;;;6204964;28;20689;-66
2022/09/11 12:17:18;;;;;;;1.87;0.70;;;26.80;47.10;;;;;;6216263;28;20279;-66
2022/09/11 12:20:33;;;;;;;1.23;0.70;;;26.70;47.60;;;;;;6212585;28;20251;-65
2022/09/11 12:24:17;;;;;;;1.20;1.00;;;26.70;48.30;;;;;;6215454;28;20241;-69
2022/09/11 12:27:51;;;;;;;3.80;2.83;;;26.40;48.50;;;;;;6220168;28;20249;-66
2022/09/11 12:31:03;;;;;;;3.77;2.40;;;26.00;50.00;;;;;;6228922;28;20228;-65
2022/09/11 12:34:16;;;;;;;1.00;0.90;;;25.70;51.30;;;;;;6228691;28;20319;-66
2022/09/11 12:37:26;;;;;;;3.37;3.03;;;25.40;51.00;;;;;;6227576;28;20591;-65
2022/09/11 12:40:38;;;;;;;1.13;0.90;;;25.20;51.70;;;;;;6204745;28;20212;-65
2022/09/11 12:43:48;;;;;;;1.57;0.60;;;25.10;52.70;;;;;;6204019;28;20387;-65
2022/09/11 12:47:17;;;;;;;1.10;0.90;;;25.00;52.90;;;;;;6204631;28;20241;-65
2022/09/11 12:50:25;;;;;;;0.97;0.90;;;25.00;54.10;;;;;;6203872;28;20724;-64
2022/09/11 12:53:32;;;;;;;1.30;0.80;;;24.90;54.40;;;;;;6203812;28;20284;-64
2022/09/11 12:56:35;;;;;;;1.67;1.00;;;24.80;54.90;;;;;;6207205;28;20236;-66
2022/09/11 12:59:43;;;;;;;1.17;0.70;;;24.80;54.80;;;;;;6222650;28;20225;-66
2022/09/11 13:02:54;;;;;;;1.10;0.60;;;24.80;54.30;;;;;;6219664;28;20233;-65
2022/09/11 13:06:01;;;;;;;2.30;0.57;;;25.00;54.20;;;;;;6215865;28;20235;-65
2022/09/11 13:09:05;;;;;;;1.53;0.53;;;25.10;53.80;;;;;;6207287;28;20704;-66
2022/09/11 13:12:47;;;;;;;3.20;0.70;;;25.10;53.80;;;;;;6216089;28;20224;-70
2022/09/11 13:15:56;;;;;;;1.47;0.60;;;25.20;53.20;;;;;;6185766;28;20229;-70
2022/09/11 13:19:02;;;;;;;0.90;0.50;;;25.20;52.70;;;;;;6203531;28;20240;-66
2022/09/11 13:22:21;;;;;;;2.40;0.40;;;25.30;52.70;;;;;;6203300;28;20233;-67
2022/09/11 13:25:25;;;;;;;0.80;0.60;;;25.20;52.20;;;;;;6203362;28;20599;-66
2022/09/11 13:28:30;;;;;;;0.80;0.50;;;25.20;52.00;;;;;;6199576;28;20213;-67
2022/09/11 13:31:36;;;;;;;1.33;0.40;;;25.10;52.10;;;;;;6202385;28;20236;-66
2022/09/11 13:34:43;;;;;;;0.90;0.30;;;25.10;52.70;;;;;;6201848;28;20602;-67
2022/09/11 13:37:56;;;;;;;1.63;0.50;;;25.00;52.90;;;;;;6202195;28;20300;-67
2022/09/11 13:41:05;;;;;;;1.17;0.63;;;25.00;52.90;;;;;;6202340;28;20237;-66
2022/09/11 13:44:11;;;;;;;1.60;0.50;;;24.90;53.00;;;;;;6207427;28;20320;-65
2022/09/11 13:47:20;;;;;;;1.10;0.53;;;24.90;52.90;;;;;;6208643;28;20653;-65
2022/09/11 13:50:24;;;;;;;0.60;0.40;;;24.90;53.20;;;;;;6215021;28;20229;-66
2022/09/11 13:53:28;;;;;;;0.87;0.40;;;24.80;52.70;;;;;;6214699;28;20234;-67
2022/09/11 13:56:44;;;;;;;0.90;0.60;;;24.70;52.90;;;;;;6215958;28;20545;-66
2022/09/11 13:59:48;;;;;;;0.80;0.43;;;24.60;53.20;;;;;;6227084;28;20229;-66
2022/09/11 14:02:53;;;;;;;0.60;0.37;;;24.60;53.20;;;;;;6226852;28;20228;-67
2022/09/11 14:05:59;;;;;;;0.63;0.40;;;24.60;53.90;;;;;;6226753;28;20229;-67
2022/09/11 14:09:02;;;;;;;0.90;0.37;;;24.40;52.60;;;;;;6226719;28;20233;-67
2022/09/11 14:12:06;;;;;;;0.90;0.30;;;24.20;53.10;;;;;;6226898;28;20244;-67
2022/09/11 14:15:20;;;;;;;0.60;0.30;;;24.30;53.40;;;;;;6226907;28;20368;-67
2022/09/11 14:18:31;;;;;;;1.00;0.47;;;24.30;53.00;;;;;;6226869;28;20237;-67
2022/09/11 14:21:37;;;;;;;0.50;0.20;;;24.30;53.10;;;;;;6226144;28;20295;-67
2022/09/11 14:24:52;;;;;;;0.73;0.30;;;24.20;53.30;;;;;;6226675;28;20253;-66
2022/09/11 14:27:56;;;;;;;1.33;0.57;;;24.30;53.50;;;;;;6217030;28;20283;-66
2022/09/11 14:31:06;;;;;;;0.83;0.47;;;24.40;53.20;;;;;;6208217;28;20229;-66
2022/09/11 14:34:17;;;;;;;0.70;0.40;;;24.50;53.40;;;;;;6201650;28;20238;-66
2022/09/11 14:37:21;;;;;;;0.60;0.30;;;24.60;53.40;;;;;;6200225;28;20225;-67
2022/09/11 14:40:24;;;;;;;0.80;0.37;;;24.50;52.90;;;;;;6210006;28;20233;-65
2022/09/11 14:43:31;;;;;;;0.60;0.30;;;24.50;53.50;;;;;;6201583;28;20284;-65
2022/09/11 14:46:34;;;;;;;0.80;0.47;;;24.40;53.40;;;;;;6202204;28;20209;-65
2022/09/11 14:49:39;;;;;;;1.33;0.70;;;24.40;52.90;;;;;;6201422;28;20327;-64
2022/09/11 14:52:42;;;;;;;0.80;0.43;;;24.30;53.90;;;;;;6201677;28;20229;-64
2022/09/11 14:55:45;;;;;;;0.67;0.33;;;24.20;53.80;;;;;;6206958;28;20330;-65
2022/09/11 14:58:49;;;;;;;0.60;0.40;;;24.10;53.70;;;;;;6204368;28;20229;-64
2022/09/11 15:01:52;;;;;;;1.27;0.27;;;23.90;52.90;;;;;;6201490;28;20238;-63
2022/09/11 15:04:57;;;;;;;0.63;0.43;;;23.60;54.10;;;;;;6201247;28;20248;-63
2022/09/11 15:08:02;;;;;;;1.27;0.30;;;23.50;53.80;;;;;;6201264;28;20237;-64
2022/09/11 15:11:05;;;;;;;0.50;0.30;;;23.40;54.50;;;;;;6209200;28;20220;-67
2022/09/11 15:14:10;;;;;;;0.70;0.43;;;23.30;54.40;;;;;;6202366;28;20236;-66
2022/09/11 15:17:35;;;;;;;0.93;0.23;;;23.20;54.40;;;;;;6206451;28;20333;-62
2022/09/11 15:20:39;;;;;;;1.00;0.50;;;23.30;54.50;;;;;;6211166;28;20308;-65
2022/09/11 15:23:45;;;;;;;3.23;0.40;;;23.20;53.70;;;;;;6212505;28;20574;-65
2022/09/11 15:26:48;;;;;;;1.33;0.30;;;23.10;54.60;;;;;;6209086;28;20225;-66
2022/09/11 15:29:53;;;;;;;1.33;0.47;;;23.20;54.80;;;;;;6211793;28;20229;-63
2022/09/11 15:32:56;;;;;;;0.60;0.30;;;23.20;54.80;;;;;;6199145;28;20241;-65
2022/09/11 15:36:04;;;;;;;0.60;0.40;;;23.20;54.80;;;;;;6178850;28;20583;-66
2022/09/11 15:39:08;;;;;;;1.03;0.40;;;23.20;53.90;;;;;;6182553;28;20598;-66
2022/09/11 15:42:12;;;;;;;1.77;0.63;;;23.20;54.10;;;;;;6200612;28;20234;-66
2022/09/11 15:45:15;;;;;;;0.87;0.40;;;23.10;54.20;;;;;;6200639;28;20230;-66
2022/09/11 15:48:20;;;;;;;0.80;0.30;;;23.00;54.20;;;;;;6200680;28;20268;-67
2022/09/11 15:51:24;;;;;;;0.93;0.40;;;22.90;55.00;;;;;;6211959;28;20294;-66
2022/09/11 15:54:28;;;;;;;0.60;0.40;;;22.80;54.80;;;;;;6221307;28;20287;-66
2022/09/11 15:57:31;;;;;;;1.47;0.60;;;22.70;55.00;;;;;;6225151;28;20236;-66
2022/09/11 16:00:35;;;;;;;1.83;0.80;;;22.70;55.20;;;;;;6213313;28;20660;-66
2022/09/11 16:03:39;;;;;;;0.70;0.30;;;22.50;55.30;;;;;;6201675;28;20236;-66
2022/09/11 16:06:45;;;;;;;0.70;0.40;;;22.40;55.60;;;;;;6194620;28;20719;-66
2022/09/11 16:09:48;;;;;;;0.90;0.50;;;22.40;55.80;;;;;;6187081;28;20569;-66
2022/09/11 16:12:55;;;;;;;0.60;0.30;;;22.40;55.80;;;;;;6191000;28;20234;-66
2022/09/11 16:16:02;;;;;;;0.70;0.50;;;22.30;55.80;;;;;;6198315;28;20222;-66
2022/09/11 16:19:05;;;;;;;2.17;0.80;;;22.20;56.20;;;;;;6218151;28;20221;-69